createdAt,value
2023-01-11T00:00:36.995Z,2.35
2023-01-11T00:03:23.258Z,2.72
2023-01-11T00:06:11.016Z,2.83
2023-01-11T00:08:56.992Z,4.55
2023-01-11T00:11:42.747Z,2.63
2023-01-11T00:14:28.547Z,3.30
2023-01-11T00:17:14.481Z,3.05
2023-01-11T00:20:00.304Z,2.15
2023-01-11T00:22:46.300Z,2.33
2023-01-11T00:25:32.234Z,2.33
2023-01-11T00:28:17.861Z,2.28
2023-01-11T00:31:03.892Z,2.08
2023-01-11T00:33:49.897Z,2.60
2023-01-11T00:36:35.729Z,1.20
2023-01-11T00:39:21.733Z,2.28
2023-01-11T00:42:28.578Z,2.38
2023-01-11T00:45:33.332Z,2.33
2023-01-11T00:48:19.342Z,3.10
2023-01-11T00:51:05.421Z,2.20
2023-01-11T00:53:52.484Z,2.00
2023-01-11T00:56:38.301Z,1.67
2023-01-11T00:59:24.334Z,2.50
2023-01-11T01:02:11.357Z,1.73
2023-01-11T01:04:57.384Z,1.92
2023-01-11T01:07:43.693Z,3.42
2023-01-11T01:10:29.417Z,2.20
2023-01-11T01:13:33.796Z,2.78
2023-01-11T01:16:20.035Z,2.13
2023-01-11T01:19:05.854Z,2.40
2023-01-11T01:21:51.750Z,2.83
2023-01-11T01:24:37.635Z,2.17
2023-01-11T01:27:23.431Z,3.35
2023-01-11T01:30:10.311Z,3.72
2023-01-11T01:32:56.308Z,3.10
2023-01-11T01:35:42.340Z,4.57
2023-01-11T01:38:29.244Z,3.67
2023-01-11T01:41:15.669Z,2.80
2023-01-11T01:44:04.365Z,5.20
2023-01-11T01:46:50.285Z,3.72
2023-01-11T01:49:36.203Z,4.30
2023-01-11T01:52:29.016Z,3.13
2023-01-11T01:55:21.283Z,2.53
2023-01-11T01:58:13.778Z,2.78
2023-01-11T02:01:22.562Z,2.17
2023-01-11T02:04:13.562Z,3.65
2023-01-11T02:07:05.869Z,4.53
2023-01-11T02:10:01.143Z,3.47
2023-01-11T02:12:50.994Z,3.13
2023-01-11T02:15:37.412Z,3.05
2023-01-11T02:18:23.551Z,2.22
2023-01-11T02:21:22.047Z,1.98
2023-01-11T02:24:32.341Z,2.25
2023-01-11T02:27:24.173Z,2.63
2023-01-11T02:30:25.191Z,1.88
2023-01-11T02:33:20.421Z,1.85
2023-01-11T02:36:15.552Z,2.47
2023-01-11T02:39:13.702Z,1.60
2023-01-11T02:42:32.727Z,3.10
2023-01-11T02:45:26.512Z,2.55
2023-01-11T02:48:15.297Z,1.52
2023-01-11T02:51:35.635Z,2.42
2023-01-11T02:54:23.578Z,1.85
2023-01-11T02:57:10.072Z,1.92
2023-01-11T02:59:58.101Z,2.30
2023-01-11T03:02:44.044Z,2.25
2023-01-11T03:05:29.913Z,2.13
2023-01-11T03:09:00.267Z,3.25
2023-01-11T03:12:27.077Z,3.63
2023-01-11T03:15:34.568Z,2.17
2023-01-11T03:18:39.781Z,3.88
2023-01-11T03:21:41.794Z,3.22
2023-01-11T03:24:37.204Z,2.53
2023-01-11T03:27:26.504Z,3.30
2023-01-11T03:30:33.177Z,2.28
2023-01-11T03:33:18.925Z,2.05
2023-01-11T03:36:21.865Z,4.32
2023-01-11T03:39:28.532Z,2.33
2023-01-11T03:42:17.132Z,2.05
2023-01-11T03:45:03.797Z,1.90
2023-01-11T03:47:50.209Z,1.73
2023-01-11T03:50:36.087Z,1.90
2023-01-11T03:53:23.256Z,2.45
2023-01-11T03:56:11.913Z,1.65
2023-01-11T03:58:58.035Z,1.67
2023-01-11T04:01:44.397Z,1.83
2023-01-11T04:04:30.316Z,1.67
2023-01-11T04:07:16.327Z,1.60
2023-01-11T04:10:02.146Z,1.33
2023-01-11T04:12:48.621Z,2.75
2023-01-11T04:15:35.975Z,1.50
2023-01-11T04:18:21.805Z,1.25
2023-01-11T04:21:07.573Z,2.22
2023-01-11T04:23:53.517Z,1.48
2023-01-11T04:26:39.909Z,1.40
2023-01-11T04:29:25.694Z,1.60
2023-01-11T04:32:11.573Z,1.17
2023-01-11T04:34:57.719Z,2.03
2023-01-11T04:37:44.100Z,1.83
2023-01-11T04:40:30.245Z,2.05
2023-01-11T04:43:16.102Z,1.85
2023-01-11T04:46:01.979Z,1.83
2023-01-11T04:48:47.832Z,1.60
2023-01-11T04:51:33.578Z,3.10
2023-01-11T04:54:19.438Z,1.17
2023-01-11T04:57:05.493Z,1.98
2023-01-11T04:59:51.609Z,2.63
2023-01-11T05:02:39.342Z,1.10
2023-01-11T05:05:25.347Z,1.25
2023-01-11T05:08:11.139Z,1.63
2023-01-11T05:10:59.109Z,1.80
2023-01-11T05:13:45.310Z,1.40
2023-01-11T05:16:31.117Z,1.63
2023-01-11T05:19:17.320Z,3.92
2023-01-11T05:22:03.233Z,4.68
2023-01-11T05:24:49.210Z,3.92
2023-01-11T05:27:35.113Z,3.10
2023-01-11T05:30:20.947Z,2.15
2023-01-11T05:33:06.812Z,2.72
2023-01-11T05:36:00.350Z,3.25
2023-01-11T05:38:47.341Z,2.78
2023-01-11T05:41:33.689Z,1.83
2023-01-11T05:44:38.564Z,2.40
2023-01-11T05:47:24.720Z,3.30
2023-01-11T05:50:10.856Z,1.88
2023-01-11T05:52:56.932Z,2.65
2023-01-11T05:55:58.776Z,1.42
2023-01-11T05:58:47.930Z,1.63
2023-01-11T06:01:34.317Z,3.85
2023-01-11T06:04:20.582Z,1.95
2023-01-11T06:07:06.928Z,2.40
2023-01-11T06:09:52.872Z,2.95
2023-01-11T06:12:38.847Z,1.67
2023-01-11T06:15:24.428Z,2.97
2023-01-11T06:18:10.383Z,1.90
2023-01-11T06:20:56.560Z,1.80
2023-01-11T06:23:45.161Z,2.33
2023-01-11T06:26:32.302Z,1.77
2023-01-11T06:29:18.342Z,1.90
2023-01-11T06:32:04.529Z,2.10
2023-01-11T06:34:50.745Z,2.85
2023-01-11T06:37:36.657Z,2.13
2023-01-11T06:40:22.352Z,2.13
2023-01-11T06:43:09.477Z,3.83
2023-01-11T06:45:55.945Z,5.13
2023-01-11T06:48:42.071Z,3.13
2023-01-11T06:51:27.850Z,9.27
2023-01-11T06:54:13.523Z,7.88
2023-01-11T06:56:59.298Z,7.38
2023-01-11T06:59:45.150Z,4.88
2023-01-11T07:02:30.982Z,5.45
2023-01-11T07:05:19.144Z,4.60
2023-01-11T07:08:05.634Z,4.95
2023-01-11T07:10:52.030Z,4.00
2023-01-11T07:13:38.393Z,4.63
2023-01-11T07:16:24.232Z,2.58
2023-01-11T07:19:11.168Z,3.03
2023-01-11T07:21:57.219Z,3.25
2023-01-11T07:24:43.097Z,3.53
2023-01-11T07:27:29.038Z,1.90
2023-01-11T07:30:15.092Z,2.42
2023-01-11T07:33:01.623Z,3.53
2023-01-11T07:35:49.417Z,4.20
2023-01-11T07:38:35.463Z,4.25
2023-01-11T07:41:39.873Z,8.30
2023-01-11T07:44:30.398Z,7.63
2023-01-11T07:47:16.338Z,13.25
2023-01-11T07:50:02.277Z,17.05
2023-01-11T07:52:48.677Z,10.43
2023-01-11T07:55:34.962Z,11.32
2023-01-11T07:58:20.917Z,6.68
2023-01-11T08:01:06.575Z,6.70
2023-01-11T08:03:52.703Z,4.35
2023-01-11T08:06:39.557Z,2.05
2023-01-11T08:09:25.656Z,3.92
2023-01-11T08:12:30.398Z,4.60
2023-01-11T08:15:16.534Z,6.15
2023-01-11T08:18:04.458Z,3.20
2023-01-11T08:20:52.877Z,3.35
2023-01-11T08:23:38.736Z,4.82
2023-01-11T08:26:25.722Z,3.28
2023-01-11T08:29:11.897Z,3.40
2023-01-11T08:31:59.362Z,3.72
2023-01-11T08:34:45.121Z,3.92
2023-01-11T08:37:31.059Z,4.88
2023-01-11T08:40:17.234Z,6.97
2023-01-11T08:43:03.617Z,5.32
2023-01-11T08:45:52.757Z,11.18
2023-01-11T08:48:38.880Z,4.65
2023-01-11T08:51:25.034Z,8.95
2023-01-11T08:54:13.367Z,11.70
2023-01-11T08:56:59.411Z,12.95
2023-01-11T08:59:45.177Z,15.73
2023-01-11T09:02:31.043Z,7.53
2023-01-11T09:05:18.377Z,6.30
2023-01-11T09:08:05.082Z,5.95
2023-01-11T09:10:50.935Z,7.55
2023-01-11T09:13:36.992Z,5.97
2023-01-11T09:16:22.857Z,8.90
2023-01-11T09:19:08.772Z,9.07
2023-01-11T09:21:57.328Z,6.32
2023-01-11T09:24:43.510Z,10.15
2023-01-11T09:27:29.766Z,6.63
2023-01-11T09:30:23.048Z,7.43
2023-01-11T09:33:09.176Z,6.90
2023-01-11T09:35:58.060Z,7.85
2023-01-11T09:38:44.089Z,4.93
2023-01-11T09:42:01.229Z,6.47
2023-01-11T09:44:53.213Z,4.22
2023-01-11T09:47:42.578Z,4.63
2023-01-11T09:50:31.191Z,6.05
2023-01-11T09:53:31.675Z,4.63
2023-01-11T09:56:25.706Z,6.30
2023-01-11T09:59:20.204Z,6.75
2023-01-11T10:02:24.971Z,10.10
2023-01-11T10:05:35.849Z,6.65
2023-01-11T10:18:31.449Z,3.30
2023-01-11T10:19:18.474Z,2.35
2023-01-11T10:22:19.740Z,1.77
2023-01-11T10:25:16.950Z,1.20
2023-01-11T10:28:07.880Z,2.08
2023-01-11T10:30:55.902Z,2.10
2023-01-11T10:34:05.011Z,1.80
2023-01-11T10:37:18.567Z,2.75
2023-01-11T10:40:39.798Z,2.15
2023-01-11T10:43:27.072Z,5.78
2023-01-11T10:46:24.604Z,3.05
2023-01-11T10:49:30.303Z,3.65
2023-01-11T10:52:41.615Z,4.72
2023-01-11T10:58:42.914Z,2.55
2023-01-11T11:01:39.509Z,2.72
2023-01-11T11:04:40.828Z,3.80
2023-01-11T11:07:40.909Z,5.22
2023-01-11T11:10:46.909Z,2.10
2023-01-11T11:13:46.051Z,1.33
2023-01-11T11:16:31.915Z,3.10
2023-01-11T11:19:22.461Z,3.78
2023-01-11T11:22:11.780Z,1.92
2023-01-11T11:25:11.988Z,4.45
2023-01-11T11:28:22.870Z,2.05
2023-01-11T11:31:11.353Z,2.35
2023-01-11T11:33:57.936Z,1.70
2023-01-11T11:36:49.513Z,2.42
2023-01-11T11:39:35.621Z,1.60
2023-01-11T11:42:22.352Z,1.00
2023-01-11T11:45:11.426Z,3.35
2023-01-11T11:48:02.240Z,1.27
2023-01-11T11:50:48.937Z,1.70
2023-01-11T11:53:36.436Z,6.15
2023-01-11T11:56:35.105Z,4.85
2023-01-11T11:59:23.154Z,3.33
2023-01-11T12:02:22.971Z,2.25
2023-01-11T12:05:10.312Z,1.60
2023-01-11T12:07:57.064Z,1.60
2023-01-11T12:10:48.883Z,1.17
2023-01-11T12:13:40.153Z,2.83
2023-01-11T12:16:30.570Z,2.00
2023-01-11T12:19:39.451Z,1.92
2023-01-11T12:22:29.389Z,2.20
2023-01-11T12:25:15.447Z,1.35
2023-01-11T12:28:14.206Z,2.03
2023-01-11T12:31:11.451Z,5.88
2023-01-11T12:34:03.835Z,3.03
2023-01-11T12:37:08.660Z,2.55
2023-01-11T12:40:14.332Z,2.38
2023-01-11T12:43:19.523Z,2.00
2023-01-11T12:46:19.602Z,1.70
2023-01-11T12:49:27.234Z,1.73
2023-01-11T12:52:39.317Z,3.35
2023-01-11T12:55:43.994Z,0.88
2023-01-11T12:58:41.272Z,1.60
2023-01-11T13:01:38.191Z,1.67
2023-01-11T13:04:27.405Z,1.77
2023-01-11T13:07:19.515Z,1.50
2023-01-11T13:10:17.141Z,14.57
2023-01-11T13:13:16.313Z,2.38
2023-01-11T13:16:29.353Z,1.70
2023-01-11T13:19:20.742Z,1.75
2023-01-11T13:22:14.261Z,2.78
2023-01-11T13:25:03.893Z,3.33
2023-01-11T13:27:51.755Z,1.70
2023-01-11T13:30:38.072Z,2.67
2023-01-11T13:33:27.065Z,2.22
2023-01-11T13:36:23.627Z,2.83
2023-01-11T13:39:15.066Z,2.30
2023-01-11T13:42:05.516Z,1.48
2023-01-11T13:45:00.094Z,3.72
2023-01-11T13:47:51.971Z,2.83
2023-01-11T13:50:42.435Z,2.50
2023-01-11T13:53:53.739Z,2.60
2023-01-11T13:56:46.464Z,3.42
2023-01-11T13:59:36.922Z,3.10
2023-01-11T14:03:03.827Z,4.00
2023-01-11T14:06:08.533Z,3.92
2023-01-11T14:09:20.251Z,2.58
2023-01-11T14:12:28.133Z,3.60
2023-01-11T14:15:32.401Z,4.15
2023-01-11T14:18:29.120Z,4.20
2023-01-11T14:21:24.093Z,2.92
2023-01-11T14:24:11.699Z,3.33
2023-01-11T14:27:33.442Z,2.90
2023-01-11T14:30:23.031Z,2.53
2023-01-11T14:33:31.059Z,4.07
2023-01-11T14:36:44.100Z,2.45
2023-01-11T14:42:52.975Z,3.28
2023-01-11T14:45:57.661Z,2.28
2023-01-11T14:49:28.836Z,3.30
2023-01-11T14:52:34.524Z,3.33
2023-01-11T14:55:27.797Z,2.58
2023-01-11T14:58:21.500Z,1.90
2023-01-11T15:01:11.146Z,3.75
2023-01-11T15:03:57.927Z,1.88
2023-01-11T15:06:54.751Z,2.35
2023-01-11T15:09:49.154Z,1.60
2023-01-11T15:12:39.760Z,2.20
2023-01-11T15:15:48.585Z,2.47
2023-01-11T15:18:45.619Z,2.67
2023-01-11T15:21:47.295Z,3.08
2023-01-11T15:24:37.083Z,4.88
2023-01-11T15:27:33.911Z,3.35
2023-01-11T15:30:28.979Z,5.15
2023-01-11T15:33:18.855Z,3.63
2023-01-11T15:36:08.084Z,2.92
2023-01-11T15:39:02.127Z,2.22
2023-01-11T15:42:15.482Z,3.78
2023-01-11T15:45:07.571Z,4.32
2023-01-11T15:48:13.181Z,6.22
2023-01-11T15:51:34.376Z,3.03
2023-01-11T15:54:43.638Z,13.90
2023-01-11T15:57:32.980Z,2.65
2023-01-11T16:00:30.709Z,3.08
2023-01-11T16:03:54.410Z,2.70
2023-01-11T16:06:47.682Z,3.42
2023-01-11T16:09:48.740Z,2.75
2023-01-11T16:12:40.811Z,2.65
2023-01-11T16:15:49.641Z,6.43
2023-01-11T16:18:41.927Z,2.85
2023-01-11T16:21:33.777Z,5.03
2023-01-11T16:24:22.103Z,4.22
2023-01-11T16:27:09.326Z,3.63
2023-01-11T16:29:56.009Z,6.55
2023-01-11T16:32:42.062Z,3.92
2023-01-11T16:35:27.924Z,4.07
2023-01-11T16:38:23.688Z,2.47
2023-01-11T16:41:13.123Z,3.65
2023-01-11T16:44:08.445Z,2.58
2023-01-11T16:47:13.312Z,3.30
2023-01-11T16:50:28.662Z,2.35
2023-01-11T16:53:16.025Z,2.33
2023-01-11T16:56:07.864Z,4.68
2023-01-11T16:59:19.206Z,2.40
2023-01-11T17:02:28.057Z,3.17
2023-01-11T17:05:22.478Z,4.90
2023-01-11T17:08:26.655Z,6.00
2023-01-11T17:11:36.013Z,6.05
2023-01-11T17:14:47.140Z,4.57
2023-01-11T17:17:37.121Z,4.88
2023-01-11T17:20:29.301Z,4.05
2023-01-11T17:23:17.122Z,3.40
2023-01-11T17:26:03.383Z,3.90
2023-01-11T17:28:51.344Z,2.45
2023-01-11T17:31:39.784Z,2.10
2023-01-11T17:34:34.185Z,3.03
2023-01-11T17:37:20.545Z,5.13
2023-01-11T17:40:11.998Z,4.53
2023-01-11T17:43:35.882Z,3.13
2023-01-11T17:46:26.660Z,2.60
2023-01-11T17:49:23.344Z,3.85
2023-01-11T17:52:22.911Z,2.83
2023-01-11T17:55:17.344Z,3.03
2023-01-11T17:58:19.203Z,3.17
2023-01-11T18:01:08.450Z,2.92
2023-01-11T18:03:59.585Z,2.70
2023-01-11T18:06:46.007Z,4.00
2023-01-11T18:09:34.409Z,4.13
2023-01-11T18:12:23.852Z,7.43
2023-01-11T18:15:19.027Z,4.97
2023-01-11T18:18:43.540Z,4.05
2023-01-11T18:21:32.911Z,3.38
2023-01-11T18:24:24.385Z,3.72
2023-01-11T18:27:24.634Z,3.38
2023-01-11T18:30:31.050Z,3.25
2023-01-11T18:33:25.326Z,4.50
2023-01-11T18:36:20.038Z,5.35
2023-01-11T18:39:10.566Z,5.75
2023-01-11T18:42:08.645Z,5.80
2023-01-11T18:44:54.455Z,5.35
2023-01-11T18:47:40.470Z,4.63
2023-01-11T18:50:26.793Z,4.45
2023-01-11T18:53:14.364Z,5.93
2023-01-11T18:56:00.705Z,4.50
2023-01-11T18:58:46.595Z,4.10
2023-01-11T19:01:37.647Z,5.18
2023-01-11T19:04:29.658Z,4.80
2023-01-11T19:07:15.656Z,3.42
2023-01-11T19:10:01.841Z,6.00
2023-01-11T19:12:47.846Z,8.02
2023-01-11T19:15:35.530Z,6.88
2023-01-11T19:18:21.790Z,7.22
2023-01-11T19:21:09.366Z,5.68
2023-01-11T19:23:55.297Z,7.82
2023-01-11T19:26:41.389Z,7.60
2023-01-11T19:29:27.872Z,27.48
2023-01-11T19:32:15.763Z,11.38
2023-01-11T19:35:02.089Z,10.13
2023-01-11T19:37:48.282Z,5.88
2023-01-11T19:40:34.539Z,9.45
2023-01-11T19:43:21.137Z,6.75
2023-01-11T19:46:07.199Z,7.30
2023-01-11T19:48:52.970Z,5.95
2023-01-11T19:51:40.101Z,10.02
2023-01-11T19:54:27.534Z,7.82
2023-01-11T19:57:15.458Z,8.90
2023-01-11T20:00:03.875Z,9.90
2023-01-11T20:02:57.848Z,6.97
2023-01-11T20:05:43.578Z,9.93
2023-01-11T20:08:29.390Z,8.80
2023-01-11T20:11:16.066Z,6.70
2023-01-11T20:14:02.247Z,6.20
2023-01-11T20:16:48.247Z,8.70
2023-01-11T20:19:34.356Z,11.10
2023-01-11T20:22:22.396Z,11.52
2023-01-11T20:25:08.383Z,15.00
2023-01-11T20:27:54.554Z,18.42
2023-01-11T20:30:41.487Z,23.35
2023-01-11T20:33:27.147Z,25.92
2023-01-11T20:36:18.153Z,35.47
2023-01-11T20:39:05.468Z,39.78
2023-01-11T20:41:51.602Z,46.63
2023-01-11T20:44:37.923Z,45.65
2023-01-11T20:47:24.184Z,45.78
2023-01-11T20:50:10.402Z,48.72
2023-01-11T20:52:59.388Z,49.70
2023-01-11T20:55:45.654Z,49.17
2023-01-11T20:58:31.861Z,52.63
2023-01-11T21:01:25.350Z,51.17
2023-01-11T21:04:11.954Z,53.47
2023-01-11T21:06:58.251Z,57.88
2023-01-11T21:09:44.206Z,52.78
2023-01-11T21:12:29.938Z,49.78
2023-01-11T21:15:15.844Z,40.10
2023-01-11T21:18:01.720Z,43.10
2023-01-11T21:20:48.829Z,49.28
2023-01-11T21:23:35.229Z,44.97
2023-01-11T21:26:21.759Z,44.10
2023-01-11T21:29:08.171Z,48.83
2023-01-11T21:31:54.361Z,45.22
2023-01-11T21:34:40.356Z,40.55
2023-01-11T21:37:26.270Z,25.38
2023-01-11T21:40:14.943Z,18.88
2023-01-11T21:43:00.999Z,20.65
2023-01-11T21:45:56.315Z,14.18
2023-01-11T21:48:42.233Z,14.35
2023-01-11T21:51:30.075Z,15.98
2023-01-11T21:54:18.905Z,28.88
2023-01-11T21:57:05.271Z,37.97
2023-01-11T21:59:51.224Z,42.05
2023-01-11T22:02:37.019Z,43.80
2023-01-11T22:05:24.264Z,43.28
2023-01-11T22:08:10.414Z,49.38
2023-01-11T22:11:00.908Z,47.92
2023-01-11T22:13:49.579Z,30.58
2023-01-11T22:16:35.968Z,37.30
2023-01-11T22:19:22.364Z,29.58
2023-01-11T22:22:08.793Z,24.50
2023-01-11T22:24:54.418Z,28.83
2023-01-11T22:27:40.351Z,18.58
2023-01-11T22:30:26.175Z,18.33
2023-01-11T22:33:11.976Z,20.42
2023-01-11T22:35:58.100Z,16.45
2023-01-11T22:38:44.213Z,17.08
2023-01-11T22:41:30.153Z,18.83
2023-01-11T22:44:16.328Z,14.55
2023-01-11T22:47:02.170Z,13.45
2023-01-11T22:49:53.751Z,25.05
2023-01-11T22:52:40.020Z,28.52
2023-01-11T22:55:25.888Z,35.35
2023-01-11T22:58:11.810Z,33.10
2023-01-11T23:00:57.677Z,33.05
2023-01-11T23:03:45.365Z,37.65
2023-01-11T23:06:42.032Z,49.60
2023-01-11T23:09:28.120Z,45.35
2023-01-11T23:12:32.420Z,50.88
2023-01-11T23:15:18.632Z,47.35
2023-01-11T23:18:04.973Z,33.45
2023-01-11T23:20:50.922Z,29.60
2023-01-11T23:23:38.169Z,17.73
2023-01-11T23:26:24.052Z,16.05
2023-01-11T23:29:09.974Z,16.13
2023-01-11T23:31:55.977Z,13.25
2023-01-11T23:34:42.272Z,12.95
2023-01-11T23:37:28.138Z,13.95
2023-01-11T23:40:14.172Z,16.30
2023-01-11T23:43:00.228Z,11.25
2023-01-11T23:45:46.181Z,10.85
2023-01-11T23:48:31.950Z,9.75
2023-01-11T23:51:17.745Z,13.13
2023-01-11T23:54:05.116Z,10.02
2023-01-11T23:56:50.949Z,13.15
2023-01-11T23:59:41.260Z,13.38
